Karlovy Vary, Czech Republic

2:44 AM CEST on September 24, 2014 (GMT +0200)
Karlovy Vary | Change Station
CLOSE
Current Station
Airport
Location: Karlovy Vary,
Elevation: 1988 ft
Nearby Weather Stations

Elev 1988 ft 50.20 °N, 12.91 °E | Updated 44 minutes ago

Clear
Clear
36 °F
Feels Like 33 °F
N
4
Wind Variable Wind from East

Today
High -- | Low -- °F
--% Chance of Precip.
Yesterday
High -- | Low -- °F
Precip. -- in
6:57 AM 7:02 PM
Waning Crescent, 0% visible
Pressure 30.09 in
Visibility -9999.0 miles
Clouds
Windchill 33 °F
Dew Point 34 °F
Humidity 93%
Rainfall 0.00 in
Snow Depth Not available.
UV Not available.
Pollen Not available.
Air Quality Not available.
Flu Activity Not available.
METAR LKKV 240000Z 10003KT CAVOK 02/01 Q1019

More Conditions Fewer Conditions

Pressure 30.09 in
Visibility -9999.0 miles
Clouds
Windchill 33 °F
Dew Point 34 °F
Humidity 93%
Rainfall 0.00 in
Snow Depth Not available.
UV Not available.
Pollen Not available.
Air Quality Not available.
Flu Activity Not available.
METAR LKKV 240000Z 10003KT CAVOK 02/01 Q1019

More Conditions Fewer Conditions

10-Day Weather Forecast

Almanac

Astronomy

Sep. 24, 2014 Rise Set
Actual Time 6:57 AM CEST 7:02 PM CEST
Civil Twilight 6:24 AM CEST 7:34 PM CEST
Nautical Twilight 5:46 AM CEST 8:12 PM CEST
Astronomical Twilight 5:07 AM CEST 8:52 PM CEST
Moon 7:04 AM CEST 6:58 PM CEST
Length of Visible Light 13h 09m
Length of Day
12h 05m
Tomorrow will be 3m 43s shorter.
Waning Crescent, 0% of the Moon is Illuminated
Sep 23
Waning Crescent
Sep 24
New
Oct 1
First Quarter
Oct 8
Full
Oct 15
Last Quarter

Yesterday's Extremes

Country Highs Country Lows

Community

WunderPhotos

Upload Photos

1,755,834 photos uploaded!

WunderBlogs® & News

Nearby

Snow Depth

Not available.

Earthquake Activity

City Distance Mag. Time & Date
No recent earthquake activity has been reported nearby.
Minimum magnitude displayed is 2.5.

Coastal Water Temperatures

Place Temperature
No Stations Reporting

Nearby Weather Stations